This is the latest recevied weather packets stored in our database for station/object KI5NYZ. If no packets are shown the sender has not sent any weather packets the latest 10 day(s).
| Time | Temp. | Humidity | Pressure | Rain* | Wind** | Luminosity | Snow |
|---|---|---|---|---|---|---|---|
| 1777352119 | 21.11° C | 19% | 1011.4 hPa | 0 mm | - | 0 W/m² | - |
| 1777351520 | 21.11° C | 19% | 1011.3 hPa | 0 mm | - | 0 W/m² | - |
| 1777348520 | 22.22° C | 18% | 1011.4 hPa | 0 mm | - | 0 W/m² | - |
| 1777347923 | 22.78° C | 17% | 1011.4 hPa | 0 mm | - | 0 W/m² | - |
| 1777347320 | 22.22° C | 17% | 1011.4 hPa | 0 mm | - | 0 W/m² | - |
| 1777343142 | 24.44° C | 16% | 1010.7 hPa | 0 mm | - | 0 W/m² | - |
| 1777340119 | 27.78° C | 13% | 1009.9 hPa | 0 mm | - | 3 W/m² | - |
| 1777339525 | 28.33° C | 13% | 1009.9 hPa | 0 mm | - | 9 W/m² | - |
| 1777335929 | 30° C | 11% | 1009.5 hPa | 0 mm | - | 119 W/m² | - |
| 1777334720 | 30.56° C | 12% | 1009.5 hPa | 0 mm | - | 221 W/m² | - |
| 1777333522 | 31.11° C | 12% | 1009.5 hPa | 0 mm | - | 238 W/m² | - |
| 1777324523 | 31.11° C | 8% | 1009.9 hPa | 1.02 mm | - | 793 W/m² | - |
| 1777322721 | 30° C | 10% | 1010.4 hPa | 0.76 mm | - | 888 W/m² | - |
| 1777321521 | 30.56° C | 10% | 1010.7 hPa | 0.76 mm | - | 928 W/m² | - |
| 1777318527 | 28.89° C | 9% | 1011.3 hPa | 0.25 mm | - | 1024 W/m² | - |
| 1777311921 | 26.67° C | 12% | 1012.5 hPa | 0.25 mm | - | 1022 W/m² | - |
| 1777310141 | 26.11° C | 13% | 1012.7 hPa | 0 mm | - | 974 W/m² | - |
| 1777309521 | 25.56° C | 13% | 1012.6 hPa | 0 mm | - | 955 W/m² | - |
| 1777301121 | 21.67° C | 18% | 1012.2 hPa | 0 mm | - | 109 W/m² | - |
| 1777299926 | 22.22° C | 16% | 1011.9 hPa | 0 mm | - | 138 W/m² | - |
| 1777293323 | 17.22° C | 22% | 1009.8 hPa | 0 mm | - | 24 W/m² | - |
| 1777292119 | 16.11° C | 24% | 1009.3 hPa | 0 mm | - | 7 W/m² | - |
| 1777290320 | 16.67° C | 23% | 1009.2 hPa | 0 mm | - | 0 W/m² | - |
| 1777286124 | 16.67° C | 27% | 1008.5 hPa | 0 mm | - | 0 W/m² | - |
| 1777284924 | 17.22° C | 27% | 1008.4 hPa | 0 mm | - | 0 W/m² | - |
* Rain latest hour (hover to see other rain measurements)
** Current wind speed in m/s (hover to see current wind gust speed)